sensor_id;sensor_type;location;lat;lon;timestamp;P1;durP1;ratioP1;P2;durP2;ratioP2
10659;SDS011;5378;53.206;13.316;2022-12-07T00:01:56;12.93;;;3.70;;
10659;SDS011;5378;53.206;13.316;2022-12-07T00:04:43;6.83;;;3.30;;
10659;SDS011;5378;53.206;13.316;2022-12-07T00:07:30;8.97;;;3.90;;
10659;SDS011;5378;53.206;13.316;2022-12-07T00:10:17;9.73;;;4.63;;
10659;SDS011;5378;53.206;13.316;2022-12-07T00:13:04;8.30;;;3.70;;
10659;SDS011;5378;53.206;13.316;2022-12-07T00:15:52;15.43;;;4.70;;
10659;SDS011;5378;53.206;13.316;2022-12-07T00:18:40;8.60;;;3.90;;
10659;SDS011;5378;53.206;13.316;2022-12-07T00:21:28;6.60;;;4.00;;
10659;SDS011;5378;53.206;13.316;2022-12-07T00:24:17;11.87;;;4.73;;
10659;SDS011;5378;53.206;13.316;2022-12-07T00:27:04;9.67;;;5.07;;
10659;SDS011;5378;53.206;13.316;2022-12-07T00:29:51;8.60;;;4.77;;
10659;SDS011;5378;53.206;13.316;2022-12-07T00:32:39;7.93;;;4.27;;
10659;SDS011;5378;53.206;13.316;2022-12-07T00:35:26;11.30;;;4.30;;
10659;SDS011;5378;53.206;13.316;2022-12-07T00:38:13;10.90;;;4.77;;
10659;SDS011;5378;53.206;13.316;2022-12-07T00:41:02;8.10;;;4.23;;
10659;SDS011;5378;53.206;13.316;2022-12-07T00:43:51;10.33;;;4.60;;
10659;SDS011;5378;53.206;13.316;2022-12-07T00:46:38;10.87;;;4.97;;
10659;SDS011;5378;53.206;13.316;2022-12-07T00:49:27;7.33;;;4.00;;
10659;SDS011;5378;53.206;13.316;2022-12-07T00:52:14;10.07;;;3.60;;
10659;SDS011;5378;53.206;13.316;2022-12-07T00:55:01;15.03;;;4.83;;
10659;SDS011;5378;53.206;13.316;2022-12-07T00:57:48;9.73;;;4.33;;
10659;SDS011;5378;53.206;13.316;2022-12-07T01:00:35;11.87;;;4.80;;
10659;SDS011;5378;53.206;13.316;2022-12-07T01:03:23;11.20;;;5.50;;
10659;SDS011;5378;53.206;13.316;2022-12-07T01:06:14;13.43;;;4.57;;
10659;SDS011;5378;53.206;13.316;2022-12-07T01:09:03;10.87;;;4.93;;
10659;SDS011;5378;53.206;13.316;2022-12-07T01:11:51;10.17;;;5.03;;
10659;SDS011;5378;53.206;13.316;2022-12-07T01:14:38;13.53;;;4.90;;
10659;SDS011;5378;53.206;13.316;2022-12-07T01:17:25;13.97;;;5.40;;
10659;SDS011;5378;53.206;13.316;2022-12-07T01:20:12;11.33;;;5.20;;
10659;SDS011;5378;53.206;13.316;2022-12-07T01:23:06;10.00;;;5.20;;
10659;SDS011;5378;53.206;13.316;2022-12-07T01:25:54;15.53;;;6.00;;
10659;SDS011;5378;53.206;13.316;2022-12-07T01:28:42;12.37;;;5.63;;
10659;SDS011;5378;53.206;13.316;2022-12-07T01:31:29;9.47;;;4.83;;
10659;SDS011;5378;53.206;13.316;2022-12-07T01:34:17;12.70;;;5.83;;
10659;SDS011;5378;53.206;13.316;2022-12-07T01:37:04;9.97;;;5.40;;
10659;SDS011;5378;53.206;13.316;2022-12-07T01:39:52;13.97;;;5.47;;
10659;SDS011;5378;53.206;13.316;2022-12-07T01:42:39;14.57;;;5.47;;
10659;SDS011;5378;53.206;13.316;2022-12-07T01:48:29;13.40;;;6.07;;
10659;SDS011;5378;53.206;13.316;2022-12-07T01:51:19;12.30;;;6.03;;
10659;SDS011;5378;53.206;13.316;2022-12-07T01:54:06;13.17;;;6.87;;
10659;SDS011;5378;53.206;13.316;2022-12-07T01:56:55;13.43;;;6.23;;
10659;SDS011;5378;53.206;13.316;2022-12-07T01:59:44;12.80;;;6.37;;
10659;SDS011;5378;53.206;13.316;2022-12-07T02:02:34;19.47;;;6.50;;
10659;SDS011;5378;53.206;13.316;2022-12-07T02:05:24;15.70;;;6.77;;
10659;SDS011;5378;53.206;13.316;2022-12-07T02:08:11;14.87;;;5.90;;
10659;SDS011;5378;53.206;13.316;2022-12-07T02:10:59;14.50;;;5.83;;
10659;SDS011;5378;53.206;13.316;2022-12-07T02:13:49;16.40;;;6.57;;
10659;SDS011;5378;53.206;13.316;2022-12-07T02:16:39;10.70;;;5.60;;
10659;SDS011;5378;53.206;13.316;2022-12-07T02:22:53;12.67;;;6.23;;
10659;SDS011;5378;53.206;13.316;2022-12-07T02:26:19;12.00;;;5.93;;
10659;SDS011;5378;53.206;13.316;2022-12-07T02:29:33;15.57;;;6.33;;
10659;SDS011;5378;53.206;13.316;2022-12-07T02:32:23;16.63;;;6.97;;
10659;SDS011;5378;53.206;13.316;2022-12-07T02:35:15;17.03;;;6.70;;
10659;SDS011;5378;53.206;13.316;2022-12-07T02:38:07;15.00;;;5.93;;
10659;SDS011;5378;53.206;13.316;2022-12-07T02:41:00;11.60;;;5.90;;
10659;SDS011;5378;53.206;13.316;2022-12-07T02:43:51;15.93;;;7.17;;
10659;SDS011;5378;53.206;13.316;2022-12-07T02:46:42;11.17;;;5.50;;
10659;SDS011;5378;53.206;13.316;2022-12-07T02:49:33;11.80;;;6.30;;
10659;SDS011;5378;53.206;13.316;2022-12-07T02:52:22;14.50;;;6.57;;
10659;SDS011;5378;53.206;13.316;2022-12-07T02:55:09;14.27;;;6.43;;
10659;SDS011;5378;53.206;13.316;2022-12-07T02:58:02;16.77;;;8.20;;
10659;SDS011;5378;53.206;13.316;2022-12-07T03:01:03;11.07;;;5.20;;
10659;SDS011;5378;53.206;13.316;2022-12-07T03:03:58;15.80;;;6.67;;
10659;SDS011;5378;53.206;13.316;2022-12-07T03:06:53;13.60;;;4.90;;
10659;SDS011;5378;53.206;13.316;2022-12-07T03:09:47;18.60;;;7.30;;
10659;SDS011;5378;53.206;13.316;2022-12-07T03:12:42;11.50;;;6.10;;
10659;SDS011;5378;53.206;13.316;2022-12-07T03:15:33;15.00;;;6.10;;
10659;SDS011;5378;53.206;13.316;2022-12-07T03:18:28;15.90;;;6.70;;
10659;SDS011;5378;53.206;13.316;2022-12-07T03:21:20;20.93;;;6.60;;
10659;SDS011;5378;53.206;13.316;2022-12-07T03:24:10;18.07;;;6.90;;
10659;SDS011;5378;53.206;13.316;2022-12-07T03:27:01;16.20;;;7.10;;
10659;SDS011;5378;53.206;13.316;2022-12-07T03:29:54;17.27;;;7.43;;
10659;SDS011;5378;53.206;13.316;2022-12-07T03:32:49;12.33;;;6.50;;
10659;SDS011;5378;53.206;13.316;2022-12-07T03:35:40;16.03;;;6.40;;
10659;SDS011;5378;53.206;13.316;2022-12-07T03:38:31;19.63;;;7.40;;
10659;SDS011;5378;53.206;13.316;2022-12-07T03:41:23;14.33;;;6.27;;
10659;SDS011;5378;53.206;13.316;2022-12-07T03:44:13;15.73;;;6.03;;
10659;SDS011;5378;53.206;13.316;2022-12-07T03:47:03;15.63;;;6.87;;
10659;SDS011;5378;53.206;13.316;2022-12-07T03:49:54;14.57;;;6.40;;
10659;SDS011;5378;53.206;13.316;2022-12-07T03:52:46;19.63;;;7.13;;
10659;SDS011;5378;53.206;13.316;2022-12-07T03:55:41;16.57;;;6.17;;
10659;SDS011;5378;53.206;13.316;2022-12-07T03:58:30;20.53;;;8.30;;
10659;SDS011;5378;53.206;13.316;2022-12-07T04:01:18;16.50;;;6.37;;
10659;SDS011;5378;53.206;13.316;2022-12-07T04:04:05;15.13;;;7.30;;
10659;SDS011;5378;53.206;13.316;2022-12-07T04:06:52;15.20;;;6.60;;
10659;SDS011;5378;53.206;13.316;2022-12-07T04:09:39;16.47;;;6.20;;
10659;SDS011;5378;53.206;13.316;2022-12-07T04:12:28;12.60;;;6.57;;
10659;SDS011;5378;53.206;13.316;2022-12-07T04:15:15;16.03;;;6.90;;
10659;SDS011;5378;53.206;13.316;2022-12-07T04:18:02;12.70;;;6.50;;
10659;SDS011;5378;53.206;13.316;2022-12-07T04:20:49;20.50;;;7.23;;
10659;SDS011;5378;53.206;13.316;2022-12-07T04:23:36;14.70;;;6.60;;
10659;SDS011;5378;53.206;13.316;2022-12-07T04:26:23;16.50;;;7.27;;
10659;SDS011;5378;53.206;13.316;2022-12-07T04:29:12;11.80;;;5.70;;
10659;SDS011;5378;53.206;13.316;2022-12-07T04:31:59;14.30;;;6.10;;
10659;SDS011;5378;53.206;13.316;2022-12-07T04:34:46;11.70;;;5.70;;
10659;SDS011;5378;53.206;13.316;2022-12-07T04:37:36;11.90;;;5.80;;
10659;SDS011;5378;53.206;13.316;2022-12-07T04:40:24;10.67;;;5.50;;
10659;SDS011;5378;53.206;13.316;2022-12-07T04:43:11;11.93;;;5.80;;
10659;SDS011;5378;53.206;13.316;2022-12-07T04:46:00;13.13;;;5.93;;
10659;SDS011;5378;53.206;13.316;2022-12-07T04:48:47;14.90;;;5.83;;
10659;SDS011;5378;53.206;13.316;2022-12-07T04:51:34;17.80;;;7.23;;
10659;SDS011;5378;53.206;13.316;2022-12-07T04:54:21;15.13;;;5.00;;
10659;SDS011;5378;53.206;13.316;2022-12-07T04:57:09;12.53;;;4.90;;
10659;SDS011;5378;53.206;13.316;2022-12-07T04:59:56;12.30;;;5.90;;
10659;SDS011;5378;53.206;13.316;2022-12-07T05:02:44;12.60;;;5.67;;
10659;SDS011;5378;53.206;13.316;2022-12-07T05:05:33;15.57;;;7.40;;
10659;SDS011;5378;53.206;13.316;2022-12-07T05:08:20;20.90;;;7.00;;
10659;SDS011;5378;53.206;13.316;2022-12-07T05:11:07;16.10;;;6.03;;
10659;SDS011;5378;53.206;13.316;2022-12-07T05:13:55;16.20;;;6.30;;
10659;SDS011;5378;53.206;13.316;2022-12-07T05:16:43;14.77;;;8.00;;
10659;SDS011;5378;53.206;13.316;2022-12-07T05:19:32;14.07;;;6.17;;
10659;SDS011;5378;53.206;13.316;2022-12-07T05:22:19;17.80;;;7.10;;
10659;SDS011;5378;53.206;13.316;2022-12-07T05:25:07;14.77;;;6.60;;
10659;SDS011;5378;53.206;13.316;2022-12-07T05:27:55;13.50;;;6.13;;
10659;SDS011;5378;53.206;13.316;2022-12-07T05:30:42;18.30;;;6.50;;
10659;SDS011;5378;53.206;13.316;2022-12-07T05:33:29;14.00;;;5.70;;
10659;SDS011;5378;53.206;13.316;2022-12-07T05:36:18;13.83;;;6.33;;
10659;SDS011;5378;53.206;13.316;2022-12-07T05:39:05;10.90;;;5.77;;
10659;SDS011;5378;53.206;13.316;2022-12-07T05:41:52;15.23;;;5.63;;
10659;SDS011;5378;53.206;13.316;2022-12-07T05:44:58;15.53;;;6.00;;
10659;SDS011;5378;53.206;13.316;2022-12-07T05:47:45;13.90;;;5.60;;
10659;SDS011;5378;53.206;13.316;2022-12-07T05:50:32;15.67;;;5.77;;
10659;SDS011;5378;53.206;13.316;2022-12-07T05:53:20;10.80;;;5.53;;
10659;SDS011;5378;53.206;13.316;2022-12-07T05:56:08;11.33;;;5.20;;
10659;SDS011;5378;53.206;13.316;2022-12-07T05:58:55;10.67;;;5.23;;
10659;SDS011;5378;53.206;13.316;2022-12-07T06:02:00;15.60;;;5.30;;
10659;SDS011;5378;53.206;13.316;2022-12-07T06:04:49;14.77;;;6.03;;
10659;SDS011;5378;53.206;13.316;2022-12-07T06:07:36;10.60;;;5.30;;
10659;SDS011;5378;53.206;13.316;2022-12-07T06:10:24;16.10;;;6.30;;
10659;SDS011;5378;53.206;13.316;2022-12-07T06:13:11;12.33;;;5.17;;
10659;SDS011;5378;53.206;13.316;2022-12-07T06:15:57;12.77;;;6.33;;
10659;SDS011;5378;53.206;13.316;2022-12-07T06:18:45;9.77;;;4.50;;
10659;SDS011;5378;53.206;13.316;2022-12-07T06:21:32;12.17;;;6.07;;
10659;SDS011;5378;53.206;13.316;2022-12-07T06:24:19;11.47;;;5.70;;
10659;SDS011;5378;53.206;13.316;2022-12-07T06:27:07;8.03;;;4.80;;
10659;SDS011;5378;53.206;13.316;2022-12-07T06:29:55;13.00;;;5.73;;
10659;SDS011;5378;53.206;13.316;2022-12-07T06:32:42;11.40;;;5.27;;
10659;SDS011;5378;53.206;13.316;2022-12-07T06:35:29;13.57;;;5.43;;
10659;SDS011;5378;53.206;13.316;2022-12-07T06:38:18;13.33;;;5.67;;
10659;SDS011;5378;53.206;13.316;2022-12-07T06:41:05;17.90;;;6.20;;
10659;SDS011;5378;53.206;13.316;2022-12-07T06:43:54;10.03;;;4.87;;
10659;SDS011;5378;53.206;13.316;2022-12-07T06:46:41;12.27;;;5.83;;
10659;SDS011;5378;53.206;13.316;2022-12-07T06:49:28;12.23;;;5.43;;
10659;SDS011;5378;53.206;13.316;2022-12-07T06:52:15;16.40;;;5.67;;
10659;SDS011;5378;53.206;13.316;2022-12-07T06:55:03;11.40;;;5.30;;
10659;SDS011;5378;53.206;13.316;2022-12-07T06:57:50;11.20;;;6.00;;
10659;SDS011;5378;53.206;13.316;2022-12-07T07:00:39;14.27;;;5.47;;
10659;SDS011;5378;53.206;13.316;2022-12-07T07:03:26;11.60;;;5.93;;
10659;SDS011;5378;53.206;13.316;2022-12-07T07:06:13;6.30;;;3.97;;
10659;SDS011;5378;53.206;13.316;2022-12-07T07:09:00;12.73;;;5.27;;
10659;SDS011;5378;53.206;13.316;2022-12-07T07:11:48;9.37;;;4.50;;
10659;SDS011;5378;53.206;13.316;2022-12-07T07:14:35;10.87;;;4.60;;
10659;SDS011;5378;53.206;13.316;2022-12-07T07:17:23;7.37;;;3.90;;
10659;SDS011;5378;53.206;13.316;2022-12-07T07:20:11;9.90;;;5.17;;
10659;SDS011;5378;53.206;13.316;2022-12-07T07:22:59;8.37;;;4.27;;
10659;SDS011;5378;53.206;13.316;2022-12-07T07:25:46;6.47;;;3.33;;
10659;SDS011;5378;53.206;13.316;2022-12-07T07:28:33;10.70;;;5.30;;
10659;SDS011;5378;53.206;13.316;2022-12-07T07:31:19;10.57;;;5.17;;
10659;SDS011;5378;53.206;13.316;2022-12-07T07:34:08;9.73;;;3.60;;
10659;SDS011;5378;53.206;13.316;2022-12-07T07:36:55;11.80;;;4.90;;
10659;SDS011;5378;53.206;13.316;2022-12-07T07:39:42;9.33;;;4.70;;
10659;SDS011;5378;53.206;13.316;2022-12-07T07:42:30;7.47;;;4.30;;
10659;SDS011;5378;53.206;13.316;2022-12-07T07:45:17;9.60;;;4.30;;
10659;SDS011;5378;53.206;13.316;2022-12-07T07:48:05;6.20;;;3.60;;
10659;SDS011;5378;53.206;13.316;2022-12-07T07:50:53;6.60;;;3.80;;
10659;SDS011;5378;53.206;13.316;2022-12-07T07:53:40;7.53;;;4.27;;
10659;SDS011;5378;53.206;13.316;2022-12-07T07:56:27;7.23;;;3.80;;
10659;SDS011;5378;53.206;13.316;2022-12-07T07:59:15;12.03;;;5.50;;
10659;SDS011;5378;53.206;13.316;2022-12-07T08:02:02;6.47;;;3.63;;
10659;SDS011;5378;53.206;13.316;2022-12-07T08:04:49;8.10;;;4.77;;
10659;SDS011;5378;53.206;13.316;2022-12-07T08:07:37;3.47;;;2.30;;
10659;SDS011;5378;53.206;13.316;2022-12-07T08:10:24;10.40;;;3.70;;
10659;SDS011;5378;53.206;13.316;2022-12-07T08:13:12;5.03;;;2.90;;
10659;SDS011;5378;53.206;13.316;2022-12-07T08:16:03;6.17;;;3.00;;
10659;SDS011;5378;53.206;13.316;2022-12-07T08:18:51;8.07;;;3.37;;
10659;SDS011;5378;53.206;13.316;2022-12-07T08:21:38;5.67;;;2.23;;
10659;SDS011;5378;53.206;13.316;2022-12-07T08:24:26;5.50;;;2.90;;
10659;SDS011;5378;53.206;13.316;2022-12-07T08:27:14;7.63;;;3.90;;
10659;SDS011;5378;53.206;13.316;2022-12-07T08:30:01;8.53;;;3.30;;
10659;SDS011;5378;53.206;13.316;2022-12-07T08:32:48;5.50;;;2.83;;
10659;SDS011;5378;53.206;13.316;2022-12-07T08:35:36;4.30;;;2.33;;
10659;SDS011;5378;53.206;13.316;2022-12-07T08:38:23;5.23;;;2.60;;
10659;SDS011;5378;53.206;13.316;2022-12-07T08:41:14;6.57;;;3.70;;
10659;SDS011;5378;53.206;13.316;2022-12-07T08:44:01;10.00;;;4.33;;
10659;SDS011;5378;53.206;13.316;2022-12-07T08:46:49;6.77;;;3.07;;
10659;SDS011;5378;53.206;13.316;2022-12-07T08:49:40;6.83;;;3.40;;
10659;SDS011;5378;53.206;13.316;2022-12-07T08:52:31;7.30;;;4.40;;
10659;SDS011;5378;53.206;13.316;2022-12-07T08:55:18;7.07;;;3.13;;
10659;SDS011;5378;53.206;13.316;2022-12-07T08:58:07;8.60;;;3.83;;
10659;SDS011;5378;53.206;13.316;2022-12-07T09:00:54;6.20;;;3.17;;
10659;SDS011;5378;53.206;13.316;2022-12-07T09:03:41;7.83;;;3.73;;
10659;SDS011;5378;53.206;13.316;2022-12-07T09:06:28;7.07;;;3.30;;
10659;SDS011;5378;53.206;13.316;2022-12-07T09:09:15;4.83;;;2.60;;
10659;SDS011;5378;53.206;13.316;2022-12-07T09:12:03;3.17;;;2.43;;
10659;SDS011;5378;53.206;13.316;2022-12-07T09:14:52;2.40;;;1.50;;
10659;SDS011;5378;53.206;13.316;2022-12-07T09:17:39;2.57;;;1.47;;
10659;SDS011;5378;53.206;13.316;2022-12-07T09:20:26;1.93;;;1.40;;
10659;SDS011;5378;53.206;13.316;2022-12-07T09:23:13;2.93;;;1.43;;
10659;SDS011;5378;53.206;13.316;2022-12-07T09:26:01;2.63;;;1.30;;
10659;SDS011;5378;53.206;13.316;2022-12-07T09:28:52;1.97;;;1.37;;
10659;SDS011;5378;53.206;13.316;2022-12-07T09:31:40;2.30;;;0.93;;
10659;SDS011;5378;53.206;13.316;2022-12-07T09:34:29;1.80;;;0.93;;
10659;SDS011;5378;53.206;13.316;2022-12-07T09:37:17;3.37;;;1.33;;
10659;SDS011;5378;53.206;13.316;2022-12-07T09:40:04;1.73;;;0.87;;
10659;SDS011;5378;53.206;13.316;2022-12-07T09:42:53;2.53;;;1.20;;
10659;SDS011;5378;53.206;13.316;2022-12-07T09:45:41;2.10;;;1.23;;
10659;SDS011;5378;53.206;13.316;2022-12-07T09:48:33;0.93;;;0.83;;
10659;SDS011;5378;53.206;13.316;2022-12-07T09:51:23;2.60;;;1.70;;
10659;SDS011;5378;53.206;13.316;2022-12-07T09:54:11;1.37;;;1.07;;
10659;SDS011;5378;53.206;13.316;2022-12-07T09:57:00;4.90;;;1.80;;
10659;SDS011;5378;53.206;13.316;2022-12-07T09:59:47;2.73;;;1.20;;
10659;SDS011;5378;53.206;13.316;2022-12-07T10:02:36;2.67;;;1.87;;
10659;SDS011;5378;53.206;13.316;2022-12-07T10:05:25;2.93;;;1.90;;
10659;SDS011;5378;53.206;13.316;2022-12-07T10:08:16;3.20;;;1.43;;
10659;SDS011;5378;53.206;13.316;2022-12-07T10:11:03;2.90;;;1.83;;
10659;SDS011;5378;53.206;13.316;2022-12-07T10:13:56;2.80;;;1.67;;
10659;SDS011;5378;53.206;13.316;2022-12-07T10:16:58;1.93;;;1.47;;
10659;SDS011;5378;53.206;13.316;2022-12-07T10:19:45;2.83;;;1.60;;
10659;SDS011;5378;53.206;13.316;2022-12-07T10:22:34;4.10;;;2.57;;
10659;SDS011;5378;53.206;13.316;2022-12-07T10:25:21;3.67;;;2.00;;
10659;SDS011;5378;53.206;13.316;2022-12-07T10:28:11;2.37;;;1.80;;
10659;SDS011;5378;53.206;13.316;2022-12-07T10:31:00;3.77;;;2.40;;
10659;SDS011;5378;53.206;13.316;2022-12-07T10:34:01;3.00;;;2.20;;
10659;SDS011;5378;53.206;13.316;2022-12-07T10:36:48;3.47;;;2.37;;
10659;SDS011;5378;53.206;13.316;2022-12-07T10:39:41;3.20;;;2.13;;
10659;SDS011;5378;53.206;13.316;2022-12-07T10:42:31;3.33;;;2.00;;
10659;SDS011;5378;53.206;13.316;2022-12-07T10:45:19;3.53;;;1.97;;
10659;SDS011;5378;53.206;13.316;2022-12-07T10:48:07;4.00;;;2.03;;
10659;SDS011;5378;53.206;13.316;2022-12-07T10:51:00;3.87;;;2.30;;
10659;SDS011;5378;53.206;13.316;2022-12-07T10:53:57;3.63;;;2.27;;
10659;SDS011;5378;53.206;13.316;2022-12-07T10:56:59;3.90;;;1.80;;
10659;SDS011;5378;53.206;13.316;2022-12-07T11:00:01;4.20;;;2.00;;
10659;SDS011;5378;53.206;13.316;2022-12-07T11:06:12;4.80;;;2.97;;
10659;SDS011;5378;53.206;13.316;2022-12-07T11:09:16;4.57;;;2.40;;
10659;SDS011;5378;53.206;13.316;2022-12-07T11:12:47;4.00;;;2.00;;
10659;SDS011;5378;53.206;13.316;2022-12-07T11:15:49;8.10;;;2.10;;
10659;SDS011;5378;53.206;13.316;2022-12-07T11:18:52;11.40;;;2.70;;
10659;SDS011;5378;53.206;13.316;2022-12-07T11:21:57;8.43;;;3.67;;
10659;SDS011;5378;53.206;13.316;2022-12-07T11:24:47;6.80;;;3.00;;
10659;SDS011;5378;53.206;13.316;2022-12-07T11:27:41;4.63;;;2.70;;
10659;SDS011;5378;53.206;13.316;2022-12-07T11:30:36;4.10;;;2.60;;
10659;SDS011;5378;53.206;13.316;2022-12-07T11:33:29;5.57;;;2.17;;
10659;SDS011;5378;53.206;13.316;2022-12-07T11:36:29;3.43;;;2.30;;
10659;SDS011;5378;53.206;13.316;2022-12-07T11:39:23;5.67;;;2.77;;
10659;SDS011;5378;53.206;13.316;2022-12-07T11:42:16;3.07;;;2.30;;
10659;SDS011;5378;53.206;13.316;2022-12-07T11:45:10;2.23;;;1.53;;
10659;SDS011;5378;53.206;13.316;2022-12-07T11:48:03;6.17;;;1.70;;
10659;SDS011;5378;53.206;13.316;2022-12-07T11:50:58;6.10;;;2.20;;
10659;SDS011;5378;53.206;13.316;2022-12-07T11:53:48;3.40;;;2.10;;
10659;SDS011;5378;53.206;13.316;2022-12-07T11:56:38;2.63;;;1.80;;
10659;SDS011;5378;53.206;13.316;2022-12-07T11:59:25;3.60;;;2.43;;
10659;SDS011;5378;53.206;13.316;2022-12-07T12:02:19;3.37;;;1.90;;
10659;SDS011;5378;53.206;13.316;2022-12-07T12:05:15;7.80;;;1.83;;
10659;SDS011;5378;53.206;13.316;2022-12-07T12:08:04;5.80;;;2.10;;
10659;SDS011;5378;53.206;13.316;2022-12-07T12:11:26;2.13;;;1.70;;
10659;SDS011;5378;53.206;13.316;2022-12-07T12:17:44;4.70;;;2.27;;
10659;SDS011;5378;53.206;13.316;2022-12-07T12:20:44;6.30;;;2.40;;
10659;SDS011;5378;53.206;13.316;2022-12-07T12:23:37;4.97;;;2.60;;
10659;SDS011;5378;53.206;13.316;2022-12-07T12:26:28;1.60;;;1.50;;
10659;SDS011;5378;53.206;13.316;2022-12-07T12:29:19;3.30;;;2.07;;
10659;SDS011;5378;53.206;13.316;2022-12-07T12:32:12;10.33;;;6.00;;
10659;SDS011;5378;53.206;13.316;2022-12-07T12:35:19;10.20;;;3.67;;
10659;SDS011;5378;53.206;13.316;2022-12-07T12:38:26;5.73;;;2.73;;
10659;SDS011;5378;53.206;13.316;2022-12-07T12:45:05;7.23;;;3.80;;
10659;SDS011;5378;53.206;13.316;2022-12-07T12:48:36;6.30;;;2.93;;
10659;SDS011;5378;53.206;13.316;2022-12-07T12:51:35;13.90;;;3.60;;
10659;SDS011;5378;53.206;13.316;2022-12-07T12:54:26;5.17;;;3.07;;
10659;SDS011;5378;53.206;13.316;2022-12-07T12:57:15;5.97;;;2.60;;
10659;SDS011;5378;53.206;13.316;2022-12-07T13:00:15;5.50;;;2.50;;
10659;SDS011;5378;53.206;13.316;2022-12-07T13:03:03;4.77;;;2.70;;
10659;SDS011;5378;53.206;13.316;2022-12-07T13:09:15;15.03;;;5.00;;
10659;SDS011;5378;53.206;13.316;2022-12-07T13:12:12;10.93;;;5.20;;
10659;SDS011;5378;53.206;13.316;2022-12-07T13:15:01;6.30;;;2.67;;
10659;SDS011;5378;53.206;13.316;2022-12-07T13:17:55;16.17;;;3.90;;
10659;SDS011;5378;53.206;13.316;2022-12-07T13:20:49;12.03;;;3.57;;
10659;SDS011;5378;53.206;13.316;2022-12-07T13:23:38;5.57;;;2.30;;
10659;SDS011;5378;53.206;13.316;2022-12-07T13:26:41;4.20;;;2.10;;
10659;SDS011;5378;53.206;13.316;2022-12-07T13:29:35;8.03;;;2.83;;
10659;SDS011;5378;53.206;13.316;2022-12-07T13:32:24;3.20;;;1.50;;
10659;SDS011;5378;53.206;13.316;2022-12-07T13:35:28;7.40;;;2.00;;
10659;SDS011;5378;53.206;13.316;2022-12-07T13:38:25;6.40;;;2.13;;
10659;SDS011;5378;53.206;13.316;2022-12-07T13:41:15;8.33;;;3.07;;
10659;SDS011;5378;53.206;13.316;2022-12-07T13:44:05;1.03;;;0.70;;
10659;SDS011;5378;53.206;13.316;2022-12-07T13:47:01;8.47;;;1.47;;
10659;SDS011;5378;53.206;13.316;2022-12-07T13:49:53;3.47;;;1.60;;
10659;SDS011;5378;53.206;13.316;2022-12-07T13:52:43;1.60;;;0.80;;
10659;SDS011;5378;53.206;13.316;2022-12-07T13:55:30;1.73;;;1.07;;
10659;SDS011;5378;53.206;13.316;2022-12-07T13:58:17;0.87;;;0.77;;
10659;SDS011;5378;53.206;13.316;2022-12-07T14:01:05;2.37;;;0.80;;
10659;SDS011;5378;53.206;13.316;2022-12-07T14:03:53;1.67;;;0.70;;
10659;SDS011;5378;53.206;13.316;2022-12-07T14:06:46;1.20;;;0.60;;
10659;SDS011;5378;53.206;13.316;2022-12-07T14:09:36;1.33;;;0.57;;
10659;SDS011;5378;53.206;13.316;2022-12-07T14:12:23;2.77;;;0.80;;
10659;SDS011;5378;53.206;13.316;2022-12-07T14:15:15;0.80;;;0.40;;
10659;SDS011;5378;53.206;13.316;2022-12-07T14:21:15;2.23;;;0.53;;
10659;SDS011;5378;53.206;13.316;2022-12-07T14:24:08;4.00;;;0.50;;
10659;SDS011;5378;53.206;13.316;2022-12-07T14:27:01;1.90;;;0.50;;
10659;SDS011;5378;53.206;13.316;2022-12-07T14:29:49;1.80;;;0.50;;
10659;SDS011;5378;53.206;13.316;2022-12-07T14:32:36;2.73;;;0.43;;
10659;SDS011;5378;53.206;13.316;2022-12-07T14:35:24;4.30;;;1.10;;
10659;SDS011;5378;53.206;13.316;2022-12-07T14:38:12;2.57;;;0.60;;
10659;SDS011;5378;53.206;13.316;2022-12-07T14:40:59;7.27;;;1.00;;
10659;SDS011;5378;53.206;13.316;2022-12-07T14:44:01;0.80;;;0.60;;
10659;SDS011;5378;53.206;13.316;2022-12-07T14:47:07;1.97;;;0.67;;
10659;SDS011;5378;53.206;13.316;2022-12-07T14:50:16;3.90;;;0.60;;
10659;SDS011;5378;53.206;13.316;2022-12-07T14:53:06;2.43;;;1.43;;
10659;SDS011;5378;53.206;13.316;2022-12-07T14:56:15;4.37;;;1.93;;
10659;SDS011;5378;53.206;13.316;2022-12-07T14:59:02;1.70;;;1.30;;
10659;SDS011;5378;53.206;13.316;2022-12-07T15:01:49;3.97;;;0.87;;
10659;SDS011;5378;53.206;13.316;2022-12-07T15:04:36;1.73;;;1.00;;
10659;SDS011;5378;53.206;13.316;2022-12-07T15:07:23;5.27;;;0.80;;
10659;SDS011;5378;53.206;13.316;2022-12-07T15:10:13;9.90;;;3.77;;
10659;SDS011;5378;53.206;13.316;2022-12-07T15:13:08;4.27;;;1.97;;
10659;SDS011;5378;53.206;13.316;2022-12-07T15:16:12;11.03;;;1.60;;
10659;SDS011;5378;53.206;13.316;2022-12-07T15:19:01;4.67;;;1.10;;
10659;SDS011;5378;53.206;13.316;2022-12-07T15:22:08;4.27;;;1.53;;
10659;SDS011;5378;53.206;13.316;2022-12-07T15:24:56;2.63;;;1.57;;
10659;SDS011;5378;53.206;13.316;2022-12-07T15:27:43;7.17;;;0.90;;
10659;SDS011;5378;53.206;13.316;2022-12-07T15:30:31;3.40;;;0.83;;
10659;SDS011;5378;53.206;13.316;2022-12-07T15:33:18;3.47;;;0.83;;
10659;SDS011;5378;53.206;13.316;2022-12-07T15:36:06;1.20;;;0.70;;
10659;SDS011;5378;53.206;13.316;2022-12-07T15:38:53;13.53;;;1.07;;
10659;SDS011;5378;53.206;13.316;2022-12-07T15:41:57;0.70;;;0.50;;
10659;SDS011;5378;53.206;13.316;2022-12-07T15:44:44;2.60;;;1.03;;
10659;SDS011;5378;53.206;13.316;2022-12-07T15:47:51;4.67;;;1.10;;
10659;SDS011;5378;53.206;13.316;2022-12-07T15:51:01;1.43;;;0.60;;
10659;SDS011;5378;53.206;13.316;2022-12-07T15:53:49;1.70;;;0.83;;
10659;SDS011;5378;53.206;13.316;2022-12-07T15:56:36;11.80;;;2.40;;
10659;SDS011;5378;53.206;13.316;2022-12-07T15:59:25;3.30;;;1.33;;
10659;SDS011;5378;53.206;13.316;2022-12-07T16:02:13;14.20;;;1.87;;
10659;SDS011;5378;53.206;13.316;2022-12-07T16:05:02;14.73;;;1.57;;
10659;SDS011;5378;53.206;13.316;2022-12-07T16:07:49;5.63;;;0.93;;
10659;SDS011;5378;53.206;13.316;2022-12-07T16:10:36;3.33;;;0.60;;
10659;SDS011;5378;53.206;13.316;2022-12-07T16:13:23;3.37;;;1.77;;
10659;SDS011;5378;53.206;13.316;2022-12-07T16:16:11;5.57;;;0.87;;
10659;SDS011;5378;53.206;13.316;2022-12-07T16:19:00;3.97;;;0.60;;
10659;SDS011;5378;53.206;13.316;2022-12-07T16:21:49;1.20;;;0.40;;
10659;SDS011;5378;53.206;13.316;2022-12-07T16:24:36;0.70;;;0.40;;
10659;SDS011;5378;53.206;13.316;2022-12-07T16:27:23;0.90;;;0.50;;
10659;SDS011;5378;53.206;13.316;2022-12-07T16:30:11;4.67;;;0.87;;
10659;SDS011;5378;53.206;13.316;2022-12-07T16:33:01;0.70;;;0.40;;
10659;SDS011;5378;53.206;13.316;2022-12-07T16:35:48;3.47;;;1.10;;
10659;SDS011;5378;53.206;13.316;2022-12-07T16:38:37;2.20;;;0.77;;
10659;SDS011;5378;53.206;13.316;2022-12-07T16:41:24;6.43;;;0.80;;
10659;SDS011;5378;53.206;13.316;2022-12-07T16:44:12;1.10;;;0.50;;
10659;SDS011;5378;53.206;13.316;2022-12-07T16:46:59;10.53;;;0.47;;
10659;SDS011;5378;53.206;13.316;2022-12-07T16:49:46;1.70;;;0.47;;
10659;SDS011;5378;53.206;13.316;2022-12-07T16:52:33;0.60;;;0.30;;
10659;SDS011;5378;53.206;13.316;2022-12-07T16:55:22;3.30;;;0.47;;
10659;SDS011;5378;53.206;13.316;2022-12-07T16:58:09;5.27;;;0.80;;
10659;SDS011;5378;53.206;13.316;2022-12-07T17:00:57;2.93;;;0.87;;
10659;SDS011;5378;53.206;13.316;2022-12-07T17:03:44;0.93;;;0.50;;
10659;SDS011;5378;53.206;13.316;2022-12-07T17:06:32;3.90;;;0.97;;
10659;SDS011;5378;53.206;13.316;2022-12-07T17:09:19;2.30;;;1.00;;
10659;SDS011;5378;53.206;13.316;2022-12-07T17:12:07;0.93;;;0.60;;
10659;SDS011;5378;53.206;13.316;2022-12-07T17:14:54;0.57;;;0.33;;
10659;SDS011;5378;53.206;13.316;2022-12-07T17:17:59;0.70;;;0.40;;
10659;SDS011;5378;53.206;13.316;2022-12-07T17:20:46;3.93;;;1.50;;
10659;SDS011;5378;53.206;13.316;2022-12-07T17:23:33;0.70;;;0.47;;
10659;SDS011;5378;53.206;13.316;2022-12-07T17:26:23;2.93;;;0.83;;